sensor_id;sensor_type;location;lat;lon;timestamp;P1;durP1;ratioP1;P2;durP2;ratioP2
52210;SDS011;38179;52.756;6.906;2023-06-05T00:02:14;17.80;;;16.30;;
52210;SDS011;38179;52.756;6.906;2023-06-05T00:04:41;17.38;;;15.88;;
52210;SDS011;38179;52.756;6.906;2023-06-05T00:07:08;17.75;;;16.05;;
52210;SDS011;38179;52.756;6.906;2023-06-05T00:09:34;18.67;;;17.00;;
52210;SDS011;38179;52.756;6.906;2023-06-05T00:12:01;18.00;;;16.20;;
52210;SDS011;38179;52.756;6.906;2023-06-05T00:14:27;18.08;;;16.38;;
52210;SDS011;38179;52.756;6.906;2023-06-05T00:16:53;18.35;;;16.63;;
52210;SDS011;38179;52.756;6.906;2023-06-05T00:19:21;17.70;;;16.05;;
52210;SDS011;38179;52.756;6.906;2023-06-05T00:21:47;18.55;;;16.85;;
52210;SDS011;38179;52.756;6.906;2023-06-05T00:24:15;17.57;;;15.87;;
52210;SDS011;38179;52.756;6.906;2023-06-05T00:26:41;18.55;;;16.75;;
52210;SDS011;38179;52.756;6.906;2023-06-05T00:29:07;17.55;;;15.90;;
52210;SDS011;38179;52.756;6.906;2023-06-05T00:31:33;17.63;;;16.02;;
52210;SDS011;38179;52.756;6.906;2023-06-05T00:33:59;17.45;;;15.85;;
52210;SDS011;38179;52.756;6.906;2023-06-05T00:36:25;17.17;;;15.57;;
52210;SDS011;38179;52.756;6.906;2023-06-05T00:38:53;18.05;;;16.45;;
52210;SDS011;38179;52.756;6.906;2023-06-05T00:41:19;18.08;;;16.48;;
52210;SDS011;38179;52.756;6.906;2023-06-05T00:43:45;19.38;;;17.58;;
52210;SDS011;38179;52.756;6.906;2023-06-05T00:46:11;18.67;;;16.92;;
52210;SDS011;38179;52.756;6.906;2023-06-05T00:48:37;18.27;;;16.45;;
52210;SDS011;38179;52.756;6.906;2023-06-05T00:51:04;17.85;;;16.35;;
52210;SDS011;38179;52.756;6.906;2023-06-05T00:53:31;18.08;;;16.40;;
52210;SDS011;38179;52.756;6.906;2023-06-05T00:56:00;18.25;;;16.55;;
52210;SDS011;38179;52.756;6.906;2023-06-05T00:58:27;19.00;;;17.27;;
52210;SDS011;38179;52.756;6.906;2023-06-05T01:03:22;18.02;;;16.23;;
52210;SDS011;38179;52.756;6.906;2023-06-05T01:05:48;18.83;;;17.10;;
52210;SDS011;38179;52.756;6.906;2023-06-05T01:08:14;17.42;;;15.93;;
52210;SDS011;38179;52.756;6.906;2023-06-05T01:10:43;18.40;;;16.70;;
52210;SDS011;38179;52.756;6.906;2023-06-05T01:13:43;17.00;;;15.45;;
52210;SDS011;38179;52.756;6.906;2023-06-05T01:16:02;18.95;;;16.95;;
52210;SDS011;38179;52.756;6.906;2023-06-05T01:18:30;17.80;;;16.23;;
52210;SDS011;38179;52.756;6.906;2023-06-05T01:20:59;19.23;;;17.27;;
52210;SDS011;38179;52.756;6.906;2023-06-05T01:23:26;17.48;;;15.85;;
52210;SDS011;38179;52.756;6.906;2023-06-05T01:25:56;24.27;;;18.27;;
52210;SDS011;38179;52.756;6.906;2023-06-05T01:28:27;18.35;;;16.40;;
52210;SDS011;38179;52.756;6.906;2023-06-05T01:33:43;19.77;;;17.80;;
52210;SDS011;38179;52.756;6.906;2023-06-05T01:36:15;17.33;;;15.68;;
52210;SDS011;38179;52.756;6.906;2023-06-05T01:38:42;18.55;;;16.67;;
52210;SDS011;38179;52.756;6.906;2023-06-05T01:41:10;19.15;;;16.92;;
52210;SDS011;38179;52.756;6.906;2023-06-05T01:43:38;20.00;;;16.85;;
52210;SDS011;38179;52.756;6.906;2023-06-05T01:46:05;18.38;;;16.73;;
52210;SDS011;38179;52.756;6.906;2023-06-05T01:48:35;18.65;;;16.85;;
52210;SDS011;38179;52.756;6.906;2023-06-05T01:51:03;19.25;;;17.25;;
52210;SDS011;38179;52.756;6.906;2023-06-05T01:53:30;17.80;;;15.95;;
52210;SDS011;38179;52.756;6.906;2023-06-05T01:55:56;19.00;;;17.00;;
52210;SDS011;38179;52.756;6.906;2023-06-05T01:58:25;19.17;;;17.17;;
52210;SDS011;38179;52.756;6.906;2023-06-05T02:00:54;18.90;;;17.00;;
52210;SDS011;38179;52.756;6.906;2023-06-05T02:03:22;18.05;;;16.33;;
52210;SDS011;38179;52.756;6.906;2023-06-05T02:05:48;18.58;;;16.70;;
52210;SDS011;38179;52.756;6.906;2023-06-05T02:08:16;19.80;;;17.58;;
52210;SDS011;38179;52.756;6.906;2023-06-05T02:10:47;18.67;;;16.87;;
52210;SDS011;38179;52.756;6.906;2023-06-05T02:13:14;19.15;;;17.30;;
52210;SDS011;38179;52.756;6.906;2023-06-05T02:15:44;19.10;;;17.30;;
52210;SDS011;38179;52.756;6.906;2023-06-05T02:18:11;19.05;;;17.15;;
52210;SDS011;38179;52.756;6.906;2023-06-05T02:20:40;18.33;;;16.38;;
52210;SDS011;38179;52.756;6.906;2023-06-05T02:23:06;18.90;;;17.10;;
52210;SDS011;38179;52.756;6.906;2023-06-05T02:25:32;19.35;;;17.23;;
52210;SDS011;38179;52.756;6.906;2023-06-05T02:27:58;18.00;;;16.10;;
52210;SDS011;38179;52.756;6.906;2023-06-05T02:30:24;18.77;;;17.13;;
52210;SDS011;38179;52.756;6.906;2023-06-05T02:32:50;19.20;;;17.20;;
52210;SDS011;38179;52.756;6.906;2023-06-05T02:35:21;19.40;;;16.90;;
52210;SDS011;38179;52.756;6.906;2023-06-05T02:37:49;19.08;;;17.23;;
52210;SDS011;38179;52.756;6.906;2023-06-05T02:40:15;19.90;;;17.83;;
52210;SDS011;38179;52.756;6.906;2023-06-05T02:42:41;17.70;;;16.10;;
52210;SDS011;38179;52.756;6.906;2023-06-05T02:45:07;19.02;;;17.08;;
52210;SDS011;38179;52.756;6.906;2023-06-05T02:47:34;18.02;;;16.42;;
52210;SDS011;38179;52.756;6.906;2023-06-05T02:50:00;19.27;;;17.30;;
52210;SDS011;38179;52.756;6.906;2023-06-05T02:52:27;17.55;;;15.90;;
52210;SDS011;38179;52.756;6.906;2023-06-05T02:54:53;18.98;;;17.17;;
52210;SDS011;38179;52.756;6.906;2023-06-05T02:57:19;18.10;;;16.40;;
52210;SDS011;38179;52.756;6.906;2023-06-05T02:59:46;18.48;;;16.75;;
52210;SDS011;38179;52.756;6.906;2023-06-05T03:02:12;18.58;;;16.83;;
52210;SDS011;38179;52.756;6.906;2023-06-05T03:04:38;19.10;;;17.20;;
52210;SDS011;38179;52.756;6.906;2023-06-05T03:07:08;18.50;;;16.60;;
52210;SDS011;38179;52.756;6.906;2023-06-05T03:09:35;19.33;;;17.23;;
52210;SDS011;38179;52.756;6.906;2023-06-05T03:12:01;19.30;;;17.60;;
52210;SDS011;38179;52.756;6.906;2023-06-05T03:14:27;17.83;;;16.23;;
52210;SDS011;38179;52.756;6.906;2023-06-05T03:16:53;18.38;;;16.67;;
52210;SDS011;38179;52.756;6.906;2023-06-05T03:19:19;18.58;;;16.88;;
52210;SDS011;38179;52.756;6.906;2023-06-05T03:21:45;19.13;;;17.33;;
52210;SDS011;38179;52.756;6.906;2023-06-05T03:24:13;18.48;;;16.58;;
52210;SDS011;38179;52.756;6.906;2023-06-05T03:26:39;19.48;;;17.42;;
52210;SDS011;38179;52.756;6.906;2023-06-05T03:29:06;19.17;;;17.20;;
52210;SDS011;38179;52.756;6.906;2023-06-05T03:31:33;18.85;;;16.95;;
52210;SDS011;38179;52.756;6.906;2023-06-05T03:33:59;18.90;;;16.90;;
52210;SDS011;38179;52.756;6.906;2023-06-05T03:36:25;18.38;;;16.52;;
52210;SDS011;38179;52.756;6.906;2023-06-05T03:38:53;20.02;;;16.85;;
52210;SDS011;38179;52.756;6.906;2023-06-05T03:41:19;18.35;;;16.55;;
52210;SDS011;38179;52.756;6.906;2023-06-05T03:43:46;18.98;;;17.05;;
52210;SDS011;38179;52.756;6.906;2023-06-05T03:46:14;19.40;;;17.08;;
52210;SDS011;38179;52.756;6.906;2023-06-05T03:48:43;18.50;;;16.60;;
52210;SDS011;38179;52.756;6.906;2023-06-05T03:51:14;19.40;;;17.40;;
52210;SDS011;38179;52.756;6.906;2023-06-05T03:53:46;17.95;;;16.23;;
52210;SDS011;38179;52.756;6.906;2023-06-05T03:56:20;17.77;;;16.02;;
52210;SDS011;38179;52.756;6.906;2023-06-05T03:58:47;17.15;;;15.57;;
52210;SDS011;38179;52.756;6.906;2023-06-05T04:01:13;18.75;;;16.80;;
52210;SDS011;38179;52.756;6.906;2023-06-05T04:03:39;19.27;;;17.15;;
52210;SDS011;38179;52.756;6.906;2023-06-05T04:06:05;18.45;;;16.10;;
52210;SDS011;38179;52.756;6.906;2023-06-05T04:08:31;16.52;;;15.02;;
52210;SDS011;38179;52.756;6.906;2023-06-05T04:10:57;17.63;;;16.02;;
52210;SDS011;38179;52.756;6.906;2023-06-05T04:13:23;17.70;;;16.00;;
52210;SDS011;38179;52.756;6.906;2023-06-05T04:15:49;18.15;;;16.35;;
52210;SDS011;38179;52.756;6.906;2023-06-05T04:18:15;18.02;;;16.27;;
52210;SDS011;38179;52.756;6.906;2023-06-05T04:20:41;17.48;;;15.90;;
52210;SDS011;38179;52.756;6.906;2023-06-05T04:23:07;16.52;;;14.93;;
52210;SDS011;38179;52.756;6.906;2023-06-05T04:25:33;18.23;;;16.52;;
52210;SDS011;38179;52.756;6.906;2023-06-05T04:27:59;18.05;;;16.15;;
52210;SDS011;38179;52.756;6.906;2023-06-05T04:30:25;17.27;;;15.52;;
52210;SDS011;38179;52.756;6.906;2023-06-05T04:32:51;17.50;;;15.80;;
52210;SDS011;38179;52.756;6.906;2023-06-05T04:35:21;19.52;;;16.50;;
52210;SDS011;38179;52.756;6.906;2023-06-05T04:37:47;17.40;;;15.73;;
52210;SDS011;38179;52.756;6.906;2023-06-05T04:40:15;18.25;;;16.42;;
52210;SDS011;38179;52.756;6.906;2023-06-05T04:42:43;17.38;;;15.82;;
52210;SDS011;38179;52.756;6.906;2023-06-05T04:45:09;17.58;;;14.95;;
52210;SDS011;38179;52.756;6.906;2023-06-05T04:47:35;17.15;;;15.43;;
52210;SDS011;38179;52.756;6.906;2023-06-05T04:50:03;17.13;;;15.50;;
52210;SDS011;38179;52.756;6.906;2023-06-05T04:52:30;18.05;;;16.13;;
52210;SDS011;38179;52.756;6.906;2023-06-05T04:54:58;16.55;;;15.05;;
52210;SDS011;38179;52.756;6.906;2023-06-05T04:57:26;17.80;;;15.98;;
52210;SDS011;38179;52.756;6.906;2023-06-05T04:59:53;17.65;;;15.95;;
52210;SDS011;38179;52.756;6.906;2023-06-05T05:02:20;17.85;;;16.15;;
52210;SDS011;38179;52.756;6.906;2023-06-05T05:04:46;17.52;;;15.93;;
52210;SDS011;38179;52.756;6.906;2023-06-05T05:07:12;17.08;;;15.50;;
52210;SDS011;38179;52.756;6.906;2023-06-05T05:09:40;17.77;;;16.00;;
52210;SDS011;38179;52.756;6.906;2023-06-05T05:12:07;17.48;;;15.77;;
52210;SDS011;38179;52.756;6.906;2023-06-05T05:14:34;17.50;;;15.93;;
52210;SDS011;38179;52.756;6.906;2023-06-05T05:17:00;17.52;;;15.57;;
52210;SDS011;38179;52.756;6.906;2023-06-05T05:19:27;17.52;;;15.68;;
52210;SDS011;38179;52.756;6.906;2023-06-05T05:21:53;17.23;;;15.60;;
52210;SDS011;38179;52.756;6.906;2023-06-05T05:24:19;18.20;;;16.30;;
52210;SDS011;38179;52.756;6.906;2023-06-05T05:26:46;16.65;;;15.13;;
52210;SDS011;38179;52.756;6.906;2023-06-05T05:29:11;17.05;;;15.45;;
52210;SDS011;38179;52.756;6.906;2023-06-05T05:31:37;17.52;;;15.82;;
52210;SDS011;38179;52.756;6.906;2023-06-05T05:34:03;17.83;;;15.95;;
52210;SDS011;38179;52.756;6.906;2023-06-05T05:36:30;17.15;;;15.40;;
52210;SDS011;38179;52.756;6.906;2023-06-05T05:38:58;16.58;;;14.90;;
52210;SDS011;38179;52.756;6.906;2023-06-05T05:41:24;15.85;;;14.32;;
52210;SDS011;38179;52.756;6.906;2023-06-05T05:43:51;16.73;;;15.13;;
52210;SDS011;38179;52.756;6.906;2023-06-05T05:46:17;16.58;;;15.07;;
52210;SDS011;38179;52.756;6.906;2023-06-05T05:48:43;17.35;;;15.75;;
52210;SDS011;38179;52.756;6.906;2023-06-05T05:51:09;17.13;;;15.50;;
52210;SDS011;38179;52.756;6.906;2023-06-05T05:53:35;17.60;;;15.88;;
52210;SDS011;38179;52.756;6.906;2023-06-05T05:56:02;17.27;;;15.52;;
52210;SDS011;38179;52.756;6.906;2023-06-05T05:58:31;17.60;;;16.00;;
52210;SDS011;38179;52.756;6.906;2023-06-05T06:00:57;17.60;;;16.00;;
52210;SDS011;38179;52.756;6.906;2023-06-05T06:03:24;17.27;;;15.57;;
52210;SDS011;38179;52.756;6.906;2023-06-05T06:05:55;17.15;;;15.60;;
52210;SDS011;38179;52.756;6.906;2023-06-05T06:08:24;17.35;;;15.55;;
52210;SDS011;38179;52.756;6.906;2023-06-05T06:10:52;17.08;;;15.55;;
52210;SDS011;38179;52.756;6.906;2023-06-05T06:13:17;17.80;;;16.20;;
52210;SDS011;38179;52.756;6.906;2023-06-05T06:15:43;17.83;;;15.93;;
52210;SDS011;38179;52.756;6.906;2023-06-05T06:18:09;17.77;;;16.20;;
52210;SDS011;38179;52.756;6.906;2023-06-05T06:20:35;16.77;;;15.23;;
52210;SDS011;38179;52.756;6.906;2023-06-05T06:23:01;17.33;;;15.57;;
52210;SDS011;38179;52.756;6.906;2023-06-05T06:25:30;17.58;;;15.95;;
52210;SDS011;38179;52.756;6.906;2023-06-05T06:27:56;17.88;;;16.27;;
52210;SDS011;38179;52.756;6.906;2023-06-05T06:30:24;17.48;;;15.90;;
52210;SDS011;38179;52.756;6.906;2023-06-05T06:32:51;18.65;;;16.85;;
52210;SDS011;38179;52.756;6.906;2023-06-05T06:35:17;17.80;;;16.20;;
52210;SDS011;38179;52.756;6.906;2023-06-05T06:37:44;17.10;;;15.60;;
52210;SDS011;38179;52.756;6.906;2023-06-05T06:40:10;16.92;;;15.52;;
52210;SDS011;38179;52.756;6.906;2023-06-05T06:42:36;17.13;;;15.57;;
52210;SDS011;38179;52.756;6.906;2023-06-05T06:45:03;17.27;;;15.65;;
52210;SDS011;38179;52.756;6.906;2023-06-05T06:47:29;16.77;;;15.27;;
52210;SDS011;38179;52.756;6.906;2023-06-05T06:49:55;17.83;;;15.85;;
52210;SDS011;38179;52.756;6.906;2023-06-05T06:52:24;18.00;;;16.40;;
52210;SDS011;38179;52.756;6.906;2023-06-05T06:54:50;17.27;;;15.57;;
52210;SDS011;38179;52.756;6.906;2023-06-05T06:57:16;16.77;;;15.18;;
52210;SDS011;38179;52.756;6.906;2023-06-05T06:59:42;17.83;;;16.00;;
52210;SDS011;38179;52.756;6.906;2023-06-05T07:02:19;18.08;;;16.45;;
52210;SDS011;38179;52.756;6.906;2023-06-05T07:04:46;17.35;;;15.70;;
52210;SDS011;38179;52.756;6.906;2023-06-05T07:07:14;16.85;;;15.45;;
52210;SDS011;38179;52.756;6.906;2023-06-05T07:09:41;16.40;;;15.00;;
52210;SDS011;38179;52.756;6.906;2023-06-05T07:12:08;17.33;;;15.73;;
52210;SDS011;38179;52.756;6.906;2023-06-05T07:14:35;16.38;;;14.98;;
52210;SDS011;38179;52.756;6.906;2023-06-05T07:17:01;16.80;;;15.40;;
52210;SDS011;38179;52.756;6.906;2023-06-05T07:19:28;16.27;;;14.88;;
52210;SDS011;38179;52.756;6.906;2023-06-05T07:21:55;15.80;;;14.40;;
52210;SDS011;38179;52.756;6.906;2023-06-05T07:24:23;16.45;;;14.95;;
52210;SDS011;38179;52.756;6.906;2023-06-05T07:26:50;18.00;;;14.85;;
52210;SDS011;38179;52.756;6.906;2023-06-05T07:29:23;16.58;;;14.88;;
52210;SDS011;38179;52.756;6.906;2023-06-05T07:31:53;16.40;;;14.93;;
52210;SDS011;38179;52.756;6.906;2023-06-05T07:34:21;17.38;;;15.88;;
52210;SDS011;38179;52.756;6.906;2023-06-05T07:36:48;16.20;;;14.70;;
52210;SDS011;38179;52.756;6.906;2023-06-05T07:39:16;16.67;;;15.00;;
52210;SDS011;38179;52.756;6.906;2023-06-05T07:41:43;17.00;;;15.48;;
52210;SDS011;38179;52.756;6.906;2023-06-05T07:44:09;16.58;;;15.00;;
52210;SDS011;38179;52.756;6.906;2023-06-05T07:46:37;16.73;;;15.35;;
52210;SDS011;38179;52.756;6.906;2023-06-05T07:49:09;15.57;;;14.20;;
52210;SDS011;38179;52.756;6.906;2023-06-05T07:51:35;16.42;;;14.93;;
52210;SDS011;38179;52.756;6.906;2023-06-05T07:54:05;16.73;;;15.27;;
52210;SDS011;38179;52.756;6.906;2023-06-05T07:56:33;16.55;;;15.05;;
52210;SDS011;38179;52.756;6.906;2023-06-05T07:58:59;16.33;;;14.93;;
52210;SDS011;38179;52.756;6.906;2023-06-05T08:01:28;16.60;;;15.00;;
52210;SDS011;38179;52.756;6.906;2023-06-05T08:03:54;15.90;;;14.60;;
52210;SDS011;38179;52.756;6.906;2023-06-05T08:06:20;17.35;;;15.77;;
52210;SDS011;38179;52.756;6.906;2023-06-05T08:08:46;17.40;;;15.52;;
52210;SDS011;38179;52.756;6.906;2023-06-05T08:11:12;17.08;;;15.63;;
52210;SDS011;38179;52.756;6.906;2023-06-05T08:13:38;16.95;;;15.45;;
52210;SDS011;38179;52.756;6.906;2023-06-05T08:16:05;16.20;;;14.75;;
52210;SDS011;38179;52.756;6.906;2023-06-05T08:18:31;17.45;;;16.00;;
52210;SDS011;38179;52.756;6.906;2023-06-05T08:20:57;17.02;;;15.52;;
52210;SDS011;38179;52.756;6.906;2023-06-05T08:23:23;17.30;;;15.68;;
52210;SDS011;38179;52.756;6.906;2023-06-05T08:25:48;17.92;;;16.23;;
52210;SDS011;38179;52.756;6.906;2023-06-05T08:28:15;16.45;;;15.05;;
52210;SDS011;38179;52.756;6.906;2023-06-05T08:30:41;16.98;;;15.30;;
52210;SDS011;38179;52.756;6.906;2023-06-05T08:33:09;17.48;;;16.08;;
52210;SDS011;38179;52.756;6.906;2023-06-05T08:35:35;16.85;;;15.27;;
52210;SDS011;38179;52.756;6.906;2023-06-05T08:38:02;17.40;;;15.80;;
52210;SDS011;38179;52.756;6.906;2023-06-05T08:40:28;17.33;;;15.73;;
52210;SDS011;38179;52.756;6.906;2023-06-05T08:42:55;17.27;;;15.65;;
52210;SDS011;38179;52.756;6.906;2023-06-05T08:45:21;17.85;;;15.88;;
52210;SDS011;38179;52.756;6.906;2023-06-05T08:47:50;17.63;;;16.17;;
52210;SDS011;38179;52.756;6.906;2023-06-05T08:50:17;17.67;;;16.27;;
52210;SDS011;38179;52.756;6.906;2023-06-05T08:52:43;18.80;;;17.15;;
52210;SDS011;38179;52.756;6.906;2023-06-05T08:55:14;18.15;;;16.35;;
52210;SDS011;38179;52.756;6.906;2023-06-05T08:57:41;16.77;;;15.13;;
52210;SDS011;38179;52.756;6.906;2023-06-05T09:00:08;17.95;;;16.10;;
52210;SDS011;38179;52.756;6.906;2023-06-05T09:02:40;17.63;;;16.13;;
52210;SDS011;38179;52.756;6.906;2023-06-05T09:05:12;17.80;;;16.23;;
52210;SDS011;38179;52.756;6.906;2023-06-05T09:07:38;18.30;;;16.55;;
52210;SDS011;38179;52.756;6.906;2023-06-05T09:10:05;19.92;;;16.45;;
52210;SDS011;38179;52.756;6.906;2023-06-05T09:12:32;17.13;;;15.65;;
52210;SDS011;38179;52.756;6.906;2023-06-05T09:15:29;18.75;;;16.73;;
52210;SDS011;38179;52.756;6.906;2023-06-05T09:18:03;18.15;;;16.48;;
52210;SDS011;38179;52.756;6.906;2023-06-05T09:20:30;18.35;;;16.75;;
52210;SDS011;38179;52.756;6.906;2023-06-05T09:23:03;17.65;;;16.15;;
52210;SDS011;38179;52.756;6.906;2023-06-05T09:25:45;18.80;;;16.98;;
52210;SDS011;38179;52.756;6.906;2023-06-05T09:28:13;18.48;;;16.67;;
52210;SDS011;38179;52.756;6.906;2023-06-05T09:30:53;18.30;;;16.55;;
52210;SDS011;38179;52.756;6.906;2023-06-05T09:33:27;18.08;;;16.27;;
52210;SDS011;38179;52.756;6.906;2023-06-05T09:36:07;17.93;;;16.43;;
52210;SDS011;38179;52.756;6.906;2023-06-05T09:38:36;18.42;;;16.88;;
52210;SDS011;38179;52.756;6.906;2023-06-05T09:41:04;18.20;;;16.70;;
52210;SDS011;38179;52.756;6.906;2023-06-05T09:43:32;18.02;;;16.52;;
52210;SDS011;38179;52.756;6.906;2023-06-05T09:45:59;18.02;;;16.42;;
52210;SDS011;38179;52.756;6.906;2023-06-05T09:48:30;18.13;;;16.52;;
52210;SDS011;38179;52.756;6.906;2023-06-05T09:51:14;18.10;;;16.40;;
52210;SDS011;38179;52.756;6.906;2023-06-05T09:53:45;18.58;;;16.88;;
52210;SDS011;38179;52.756;6.906;2023-06-05T09:56:15;17.83;;;16.23;;
52210;SDS011;38179;52.756;6.906;2023-06-05T09:58:43;18.25;;;16.75;;
52210;SDS011;38179;52.756;6.906;2023-06-05T10:01:12;18.42;;;16.75;;
52210;SDS011;38179;52.756;6.906;2023-06-05T10:03:42;18.15;;;16.58;;
52210;SDS011;38179;52.756;6.906;2023-06-05T10:06:09;19.05;;;17.25;;
52210;SDS011;38179;52.756;6.906;2023-06-05T10:08:37;19.52;;;17.63;;
52210;SDS011;38179;52.756;6.906;2023-06-05T10:11:03;18.25;;;16.75;;
52210;SDS011;38179;52.756;6.906;2023-06-05T10:13:30;17.88;;;16.38;;
52210;SDS011;38179;52.756;6.906;2023-06-05T10:15:57;18.17;;;16.67;;
52210;SDS011;38179;52.756;6.906;2023-06-05T10:18:24;18.58;;;17.00;;
52210;SDS011;38179;52.756;6.906;2023-06-05T10:20:50;19.25;;;17.30;;
52210;SDS011;38179;52.756;6.906;2023-06-05T10:23:18;18.30;;;16.80;;
52210;SDS011;38179;52.756;6.906;2023-06-05T10:25:46;18.33;;;16.73;;
52210;SDS011;38179;52.756;6.906;2023-06-05T10:33:21;17.92;;;16.17;;
52210;SDS011;38179;52.756;6.906;2023-06-05T10:38:51;18.13;;;16.60;;
52210;SDS011;38179;52.756;6.906;2023-06-05T10:41:17;18.90;;;17.27;;
52210;SDS011;38179;52.756;6.906;2023-06-05T10:51:47;18.15;;;16.45;;
52210;SDS011;38179;52.756;6.906;2023-06-05T10:59:28;19.50;;;17.85;;
52210;SDS011;38179;52.756;6.906;2023-06-05T11:07:19;18.23;;;16.73;;
52210;SDS011;38179;52.756;6.906;2023-06-05T11:20:07;18.27;;;16.70;;
52210;SDS011;38179;52.756;6.906;2023-06-05T11:30:30;18.25;;;16.75;;
52210;SDS011;38179;52.756;6.906;2023-06-05T11:33:07;18.88;;;17.08;;
52210;SDS011;38179;52.756;6.906;2023-06-05T11:35:34;18.45;;;16.65;;
52210;SDS011;38179;52.756;6.906;2023-06-05T11:38:07;18.42;;;17.00;;
52210;SDS011;38179;52.756;6.906;2023-06-05T11:40:43;18.88;;;17.48;;
52210;SDS011;38179;52.756;6.906;2023-06-05T11:43:11;18.20;;;16.80;;
52210;SDS011;38179;52.756;6.906;2023-06-05T11:45:38;18.75;;;17.23;;
52210;SDS011;38179;52.756;6.906;2023-06-05T11:48:12;18.90;;;17.40;;
52210;SDS011;38179;52.756;6.906;2023-06-05T11:50:39;18.98;;;17.38;;
52210;SDS011;38179;52.756;6.906;2023-06-05T11:53:24;18.60;;;17.02;;
52210;SDS011;38179;52.756;6.906;2023-06-05T11:55:54;18.85;;;17.20;;
52210;SDS011;38179;52.756;6.906;2023-06-05T11:58:34;18.63;;;17.20;;
52210;SDS011;38179;52.756;6.906;2023-06-05T12:01:09;18.05;;;16.58;;
52210;SDS011;38179;52.756;6.906;2023-06-05T12:03:45;18.23;;;16.83;;
52210;SDS011;38179;52.756;6.906;2023-06-05T12:06:12;18.73;;;17.30;;
52210;SDS011;38179;52.756;6.906;2023-06-05T12:08:38;18.92;;;17.33;;
52210;SDS011;38179;52.756;6.906;2023-06-05T12:11:26;18.70;;;17.05;;
52210;SDS011;38179;52.756;6.906;2023-06-05T12:13:52;18.88;;;17.05;;
52210;SDS011;38179;52.756;6.906;2023-06-05T12:16:41;18.40;;;16.83;;
52210;SDS011;38179;52.756;6.906;2023-06-05T12:19:11;19.60;;;17.45;;
52210;SDS011;38179;52.756;6.906;2023-06-05T12:21:46;18.25;;;16.85;;
52210;SDS011;38179;52.756;6.906;2023-06-05T12:24:13;18.67;;;17.13;;
52210;SDS011;38179;52.756;6.906;2023-06-05T12:26:55;18.52;;;17.02;;
52210;SDS011;38179;52.756;6.906;2023-06-05T12:29:28;18.80;;;17.33;;
52210;SDS011;38179;52.756;6.906;2023-06-05T12:31:56;18.83;;;17.27;;
52210;SDS011;38179;52.756;6.906;2023-06-05T12:34:42;19.35;;;17.60;;
52210;SDS011;38179;52.756;6.906;2023-06-05T12:37:10;19.23;;;17.70;;
52210;SDS011;38179;52.756;6.906;2023-06-05T12:39:38;18.75;;;17.15;;
52210;SDS011;38179;52.756;6.906;2023-06-05T12:42:04;19.13;;;17.52;;
52210;SDS011;38179;52.756;6.906;2023-06-05T12:44:30;19.33;;;17.52;;
52210;SDS011;38179;52.756;6.906;2023-06-05T12:46:56;18.75;;;17.13;;
52210;SDS011;38179;52.756;6.906;2023-06-05T12:49:22;19.60;;;17.77;;
52210;SDS011;38179;52.756;6.906;2023-06-05T12:51:48;19.23;;;17.75;;
52210;SDS011;38179;52.756;6.906;2023-06-05T12:54:14;18.52;;;17.15;;
52210;SDS011;38179;52.756;6.906;2023-06-05T12:56:43;19.25;;;17.80;;
52210;SDS011;38179;52.756;6.906;2023-06-05T12:59:10;19.73;;;18.17;;
52210;SDS011;38179;52.756;6.906;2023-06-05T13:01:36;19.55;;;17.70;;
52210;SDS011;38179;52.756;6.906;2023-06-05T13:04:04;19.45;;;17.55;;
52210;SDS011;38179;52.756;6.906;2023-06-05T13:06:30;19.02;;;17.63;;
52210;SDS011;38179;52.756;6.906;2023-06-05T13:08:58;19.52;;;18.02;;
52210;SDS011;38179;52.756;6.906;2023-06-05T13:11:24;19.42;;;17.83;;
52210;SDS011;38179;52.756;6.906;2023-06-05T13:13:50;19.02;;;17.52;;
52210;SDS011;38179;52.756;6.906;2023-06-05T13:16:16;19.52;;;17.92;;
52210;SDS011;38179;52.756;6.906;2023-06-05T13:18:42;19.58;;;18.08;;
52210;SDS011;38179;52.756;6.906;2023-06-05T13:21:08;20.08;;;18.45;;
52210;SDS011;38179;52.756;6.906;2023-06-05T13:23:34;19.50;;;18.00;;
52210;SDS011;38179;52.756;6.906;2023-06-05T13:26:00;19.55;;;17.83;;
52210;SDS011;38179;52.756;6.906;2023-06-05T13:28:28;19.60;;;17.90;;
52210;SDS011;38179;52.756;6.906;2023-06-05T13:30:54;19.38;;;17.90;;
52210;SDS011;38179;52.756;6.906;2023-06-05T13:33:21;19.63;;;18.13;;
52210;SDS011;38179;52.756;6.906;2023-06-05T13:35:47;20.50;;;18.70;;
52210;SDS011;38179;52.756;6.906;2023-06-05T13:38:13;20.35;;;18.85;;
52210;SDS011;38179;52.756;6.906;2023-06-05T13:40:39;19.45;;;17.80;;
52210;SDS011;38179;52.756;6.906;2023-06-05T13:43:07;19.70;;;18.13;;
52210;SDS011;38179;52.756;6.906;2023-06-05T13:45:33;19.55;;;18.00;;
52210;SDS011;38179;52.756;6.906;2023-06-05T13:47:59;19.40;;;18.00;;
52210;SDS011;38179;52.756;6.906;2023-06-05T13:50:25;19.63;;;18.02;;
52210;SDS011;38179;52.756;6.906;2023-06-05T13:52:51;20.45;;;18.85;;
52210;SDS011;38179;52.756;6.906;2023-06-05T13:55:17;19.83;;;18.23;;
52210;SDS011;38179;52.756;6.906;2023-06-05T13:57:43;19.50;;;18.10;;
52210;SDS011;38179;52.756;6.906;2023-06-05T14:00:10;19.65;;;18.15;;
52210;SDS011;38179;52.756;6.906;2023-06-05T14:02:39;20.20;;;18.60;;
52210;SDS011;38179;52.756;6.906;2023-06-05T14:05:06;19.77;;;18.23;;
52210;SDS011;38179;52.756;6.906;2023-06-05T14:07:38;20.63;;;18.92;;
52210;SDS011;38179;52.756;6.906;2023-06-05T14:10:04;20.88;;;19.30;;
52210;SDS011;38179;52.756;6.906;2023-06-05T14:12:31;21.00;;;19.27;;
52210;SDS011;38179;52.756;6.906;2023-06-05T14:14:57;20.23;;;18.73;;
52210;SDS011;38179;52.756;6.906;2023-06-05T14:17:23;21.10;;;19.40;;
52210;SDS011;38179;52.756;6.906;2023-06-05T14:19:49;20.42;;;18.83;;
52210;SDS011;38179;52.756;6.906;2023-06-05T14:22:15;20.50;;;18.90;;
52210;SDS011;38179;52.756;6.906;2023-06-05T14:24:40;20.50;;;19.00;;
52210;SDS011;38179;52.756;6.906;2023-06-05T14:27:07;20.60;;;19.10;;
52210;SDS011;38179;52.756;6.906;2023-06-05T14:29:34;20.45;;;18.75;;
52210;SDS011;38179;52.756;6.906;2023-06-05T14:32:01;20.48;;;18.85;;
52210;SDS011;38179;52.756;6.906;2023-06-05T14:34:27;20.75;;;19.25;;
52210;SDS011;38179;52.756;6.906;2023-06-05T14:36:53;20.25;;;18.65;;
52210;SDS011;38179;52.756;6.906;2023-06-05T14:39:19;20.77;;;18.98;;
52210;SDS011;38179;52.756;6.906;2023-06-05T14:41:47;20.83;;;19.20;;
52210;SDS011;38179;52.756;6.906;2023-06-05T14:44:13;20.25;;;18.65;;
52210;SDS011;38179;52.756;6.906;2023-06-05T14:46:39;20.67;;;18.95;;
52210;SDS011;38179;52.756;6.906;2023-06-05T14:49:05;21.10;;;19.33;;
52210;SDS011;38179;52.756;6.906;2023-06-05T14:51:31;20.92;;;19.42;;
52210;SDS011;38179;52.756;6.906;2023-06-05T14:53:57;22.25;;;20.20;;
52210;SDS011;38179;52.756;6.906;2023-06-05T14:56:23;20.95;;;19.45;;
52210;SDS011;38179;52.756;6.906;2023-06-05T14:58:49;20.70;;;19.20;;
52210;SDS011;38179;52.756;6.906;2023-06-05T15:01:17;21.23;;;19.52;;
52210;SDS011;38179;52.756;6.906;2023-06-05T15:03:44;20.80;;;19.20;;
52210;SDS011;38179;52.756;6.906;2023-06-05T15:06:10;20.73;;;19.15;;
52210;SDS011;38179;52.756;6.906;2023-06-05T15:08:36;20.85;;;19.25;;
52210;SDS011;38179;52.756;6.906;2023-06-05T15:11:02;21.67;;;19.95;;
52210;SDS011;38179;52.756;6.906;2023-06-05T15:13:28;22.33;;;19.88;;
52210;SDS011;38179;52.756;6.906;2023-06-05T15:15:54;21.48;;;19.65;;